PWSweather.com
Personal Weather Stations
Station Observations
2450ARBOR
Round Rock, TX 78681

Round Rock, TX 78681

Lat: 30.535239, Lon: -97.728137

Elevation: 800

Station Type:

High Low Average
Temperature 74.1°F23.4°C 49.3°F9.6°C 58.7°F14.8°C
Dew Point 58.0°F14.4°C 37.0°F2.8°C 45.2°F7.3°C
Winds 4.0 mph 6.4 kmh Calm Calm 1.0 mph S1.6 kmh S
Wind Gusts 5.0 mph8.0 kmh -- 1.0 mph1.6 kmh
Humidity 98% 27% 66%
Pressure 29.75 in1007.5 mb 29.63 in1003.4 mb -
Precipitation 0.32 in8.1 mm - -
Hour Temp Dew Point Humidity Winds Wind Gusts Pressure Precip Precip Rate Daily Precip Total
12:20 AM 68.9°F20.5°C 66.0°F18.9°C 92% Calm Calm 2.0 mph3.2 kmh 29.64 in1003.7 mb 0.00 in0.0 mm 0.00 in0.0 mm 0.00 in0.0 mm
12:50 AM 61.5°F16.4°C 59.0°F15.0°C 91% 3.0 mph NE4.8 kmh NE 7.0 mph11.3 kmh 29.68 in1005.1 mb 0.28 in7.1 mm 0.56 in14.2 mm 0.28 in7.1 mm
01:10 AM 60.3°F15.7°C 58.0°F14.4°C 92% Calm Calm 3.0 mph4.8 kmh 29.69 in1005.4 mb 0.42 in10.7 mm 0.21 in5.3 mm 0.32 in8.1 mm
01:31 AM 59.0°F15.0°C 57.0°F13.9°C 94% Calm Calm -- 29.69 in1005.4 mb 0.42 in10.7 mm 0.00 in0.0 mm 0.32 in8.1 mm
02:20 AM 58.1°F14.5°C 57.0°F13.9°C 96% Calm Calm -- 29.68 in1005.1 mb 0.00 in0.0 mm 0.00 in0.0 mm 0.32 in8.1 mm
02:50 AM 57.7°F14.3°C 57.0°F13.9°C 97% Calm Calm -- 29.68 in1005.1 mb 0.00 in0.0 mm 0.00 in0.0 mm 0.32 in8.1 mm
03:01 AM 57.2°F14.0°C 56.0°F13.3°C 97% Calm Calm -- 29.68 in1005.1 mb 0.00 in0.0 mm 0.00 in0.0 mm 0.32 in8.1 mm
03:20 AM 56.3°F13.5°C 56.0°F13.3°C 97% Calm Calm -- 29.68 in1005.1 mb 0.00 in0.0 mm 0.00 in0.0 mm 0.32 in8.1 mm
03:50 AM 55.2°F12.9°C 55.0°F12.8°C 98% Calm Calm -- 29.68 in1005.1 mb 0.00 in0.0 mm 0.00 in0.0 mm 0.32 in8.1 mm
04:01 AM 55.4°F13.0°C 55.0°F12.8°C 98% Calm Calm -- 29.66 in1004.4 mb 0.00 in0.0 mm 0.00 in0.0 mm 0.32 in8.1 mm
04:10 AM 54.5°F12.5°C 54.0°F12.2°C 98% Calm Calm -- 29.66 in1004.4 mb 0.00 in0.0 mm 0.00 in0.0 mm 0.32 in8.1 mm
04:50 AM 53.6°F12.0°C 53.0°F11.7°C 98% Calm Calm -- 29.66 in1004.4 mb 0.00 in0.0 mm 0.00 in0.0 mm 0.32 in8.1 mm
05:10 AM 52.5°F11.4°C 52.0°F11.1°C 98% Calm Calm -- 29.67 in1004.7 mb 0.00 in0.0 mm 0.00 in0.0 mm 0.32 in8.1 mm
05:40 AM 51.3°F10.7°C 50.0°F10.0°C 97% Calm Calm -- 29.67 in1004.7 mb 0.00 in0.0 mm 0.00 in0.0 mm 0.32 in8.1 mm
05:59 AM 50.9°F10.5°C 50.0°F10.0°C 98% Calm Calm -- 29.65 in1004.1 mb 0.00 in0.0 mm 0.00 in0.0 mm 0.32 in8.1 mm
06:20 AM 50.0°F10.0°C 50.0°F10.0°C 98% Calm Calm -- 29.65 in1004.1 mb 0.00 in0.0 mm 0.00 in0.0 mm 0.32 in8.1 mm
06:31 AM 49.5°F9.7°C 49.0°F9.4°C 98% Calm Calm -- 29.65 in1004.1 mb 0.00 in0.0 mm 0.00 in0.0 mm 0.32 in8.1 mm
06:50 AM 49.3°F9.6°C 48.0°F8.9°C 96% Calm Calm -- 29.65 in1004.1 mb 0.00 in0.0 mm 0.00 in0.0 mm 0.32 in8.1 mm
07:10 AM 49.6°F9.8°C 48.0°F8.9°C 93% Calm Calm -- 29.67 in1004.7 mb 0.00 in0.0 mm 0.00 in0.0 mm 0.32 in8.1 mm
07:49 AM 53.6°F12.0°C 46.0°F7.8°C 75% 2.0 mph S3.2 kmh S 5.0 mph8.0 kmh 29.67 in1004.7 mb 0.00 in0.0 mm 0.00 in0.0 mm 0.32 in8.1 mm
08:20 AM 52.7°F11.5°C 46.0°F7.8°C 79% Calm Calm -- 29.69 in1005.4 mb 0.00 in0.0 mm 0.00 in0.0 mm 0.32 in8.1 mm
08:40 AM 51.1°F10.6°C 46.0°F7.8°C 84% Calm Calm -- 29.69 in1005.4 mb 0.00 in0.0 mm 0.00 in0.0 mm 0.32 in8.1 mm
08:50 AM 51.1°F10.6°C 46.0°F7.8°C 83% 1.0 mph S1.6 kmh S 1.0 mph1.6 kmh 29.69 in1005.4 mb 0.00 in0.0 mm 0.00 in0.0 mm 0.32 in8.1 mm
09:21 AM 52.7°F11.5°C 47.0°F8.3°C 81% Calm Calm -- 29.72 in1006.4 mb 0.00 in0.0 mm 0.00 in0.0 mm 0.32 in8.1 mm
09:41 AM 56.7°F13.7°C 45.0°F7.2°C 65% 2.0 mph 3.2 kmh 4.0 mph6.4 kmh 29.72 in1006.4 mb 0.00 in0.0 mm 0.00 in0.0 mm 0.32 in8.1 mm
10:31 AM 62.8°F17.1°C 45.0°F7.2°C 52% 3.0 mph S4.8 kmh S 3.0 mph4.8 kmh 29.72 in1006.4 mb 0.00 in0.0 mm 0.00 in0.0 mm 0.32 in8.1 mm
10:51 AM 65.7°F18.7°C 45.0°F7.2°C 47% 2.0 mph NNE3.2 kmh NNE 2.0 mph3.2 kmh 29.72 in1006.4 mb 0.00 in0.0 mm 0.00 in0.0 mm 0.32 in8.1 mm
11:01 AM 66.9°F19.4°C 45.0°F7.2°C 45% 2.0 mph WSW3.2 kmh WSW 3.0 mph4.8 kmh 29.73 in1006.8 mb 0.00 in0.0 mm 0.00 in0.0 mm 0.32 in8.1 mm
12:01 PM 69.4°F20.8°C 43.0°F6.1°C 38% 4.0 mph WSW6.4 kmh WSW 4.0 mph6.4 kmh 29.73 in1006.8 mb 0.00 in0.0 mm 0.00 in0.0 mm 0.32 in8.1 mm
12:31 PM 70.5°F21.4°C 41.0°F5.0°C 34% 2.0 mph NNW3.2 kmh NNW 2.0 mph3.2 kmh 29.73 in1006.8 mb 0.00 in0.0 mm 0.00 in0.0 mm 0.32 in8.1 mm
12:50 PM 71.1°F21.7°C 42.0°F5.6°C 35% 1.0 mph NW1.6 kmh NW 1.0 mph1.6 kmh 29.73 in1006.8 mb 0.00 in0.0 mm 0.00 in0.0 mm 0.32 in8.1 mm
01:20 PM 72.3°F22.4°C 42.0°F5.6°C 33% 3.0 mph WNW4.8 kmh WNW 3.0 mph4.8 kmh 29.69 in1005.4 mb 0.00 in0.0 mm 0.00 in0.0 mm 0.32 in8.1 mm
02:10 PM 73.2°F22.9°C 40.0°F4.4°C 30% 2.0 mph S3.2 kmh S 2.0 mph3.2 kmh 29.67 in1004.7 mb 0.00 in0.0 mm 0.00 in0.0 mm 0.32 in8.1 mm
03:10 PM 74.1°F23.4°C 41.0°F5.0°C 30% 2.0 mph W3.2 kmh W 2.0 mph3.2 kmh 29.65 in1004.1 mb 0.00 in0.0 mm 0.00 in0.0 mm 0.32 in8.1 mm
04:20 PM 73.9°F23.3°C 40.0°F4.4°C 29% Calm Calm 1.0 mph1.6 kmh 29.65 in1004.1 mb 0.00 in0.0 mm 0.00 in0.0 mm 0.32 in8.1 mm
04:40 PM 74.1°F23.4°C 40.0°F4.4°C 29% Calm Calm 2.0 mph3.2 kmh 29.65 in1004.1 mb 0.00 in0.0 mm 0.00 in0.0 mm 0.32 in8.1 mm
05:20 PM 73.0°F22.8°C 37.0°F2.8°C 27% 1.0 mph SSE1.6 kmh SSE 1.0 mph1.6 kmh 29.63 in1003.4 mb 0.00 in0.0 mm 0.00 in0.0 mm 0.32 in8.1 mm
05:40 PM 71.8°F22.1°C 39.0°F3.9°C 30% Calm Calm 1.0 mph1.6 kmh 29.64 in1003.7 mb 0.00 in0.0 mm 0.00 in0.0 mm 0.32 in8.1 mm
06:10 PM 69.4°F20.8°C 38.0°F3.3°C 32% Calm Calm -- 29.64 in1003.7 mb 0.00 in0.0 mm 0.00 in0.0 mm 0.32 in8.1 mm
06:40 PM 65.3°F18.5°C 42.0°F5.6°C 42% Calm Calm -- 29.64 in1003.7 mb 0.00 in0.0 mm 0.00 in0.0 mm 0.32 in8.1 mm
07:20 PM 61.2°F16.2°C 38.0°F3.3°C 43% Calm Calm -- 29.67 in1004.7 mb 0.00 in0.0 mm 0.00 in0.0 mm 0.32 in8.1 mm
07:31 PM 60.8°F16.0°C 38.0°F3.3°C 43% Calm Calm -- 29.67 in1004.7 mb 0.00 in0.0 mm 0.00 in0.0 mm 0.32 in8.1 mm
08:01 PM 61.2°F16.2°C 38.0°F3.3°C 42% Calm Calm -- 29.67 in1004.7 mb 0.00 in0.0 mm 0.00 in0.0 mm 0.32 in8.1 mm
08:09 PM 60.6°F15.9°C 38.0°F3.3°C 43% Calm Calm -- 29.64 in1003.7 mb 0.00 in0.0 mm 0.00 in0.0 mm 0.32 in8.1 mm
08:50 PM 56.5°F13.6°C 39.0°F3.9°C 51% Calm Calm -- 29.67 in1004.7 mb 0.00 in0.0 mm 0.00 in0.0 mm 0.32 in8.1 mm
09:10 PM 55.0°F12.8°C 40.0°F4.4°C 57% Calm Calm -- 29.70 in1005.8 mb 0.00 in0.0 mm 0.00 in0.0 mm 0.32 in8.1 mm
10:01 PM 51.8°F11.0°C 42.0°F5.6°C 70% Calm Calm -- 29.71 in1006.1 mb 0.00 in0.0 mm 0.00 in0.0 mm 0.32 in8.1 mm
10:10 PM 51.6°F10.9°C 41.0°F5.0°C 66% Calm Calm -- 29.71 in1006.1 mb 0.00 in0.0 mm 0.00 in0.0 mm 0.32 in8.1 mm
11:01 PM 51.8°F11.0°C 40.0°F4.4°C 64% Calm Calm -- 29.74 in1007.1 mb 0.00 in0.0 mm 0.00 in0.0 mm 0.32 in8.1 mm
11:20 PM 52.2°F11.2°C 40.0°F4.4°C 63% Calm Calm -- 29.74 in1007.1 mb 0.00 in0.0 mm 0.00 in0.0 mm 0.32 in8.1 mm
11:31 PM 52.0°F11.1°C 40.0°F4.4°C 63% Calm Calm -- 29.74 in1007.1 mb 0.00 in0.0 mm 0.00 in0.0 mm 0.32 in8.1 mm